SIA11A KLAX-RJAA
Flight info
| Callsign | SIA11A |
|---|---|
| Flight time | N/A |
| Altitude | 29998 |
| Route | SUMMR2 MCKEY DCT LIBBO DCT BRINY DCT BOARS DCT AMAKR DCT LINUZ DCT NATTE DCT ZANNG DCT 48N140W 51N150W/N0494F300 53N160W DCT RIZON DCT EYETI DCT 51N170E/N0496F320 DCT ASPIN DCT AKISU DCT AGEDI ADGOR R591 ADNAP Y807 NOGIX Y802 OLDIV Y809 SUPOK |
| Aircraft | B77W/H-SDE1E2E3FGHIJ4J5M1P2RWXYZ/LB1D1 |
Departure
| Time | 2026-04-25 16:00 |
|---|---|
| Airport | Los Angeles International Airport (KLAX) |
Arrival
| Time | N/A |
|---|---|
| Airport | Narita International Airport (RJAA) |
| Time | Latitude | Longitude | Altitude | Speed | Heading |
|---|---|---|---|---|---|
| 2026-04-25 15:31 | 33.94460 | -118.41154 | 130 ft | 0 kts | 83° |
| 2026-04-25 15:46 | 33.94459 | -118.41165 | 125 ft | 1 kts | 83° |
| 2026-04-25 15:46 | 33.94458 | -118.41175 | 125 ft | 1 kts | 83° |
| 2026-04-25 15:46 | 33.94457 | -118.41186 | 125 ft | 1 kts | 83° |
| 2026-04-25 15:46 | 33.94456 | -118.41196 | 125 ft | 1 kts | 83° |
| 2026-04-25 15:47 | 33.94455 | -118.41206 | 125 ft | 1 kts | 83° |
| 2026-04-25 15:47 | 33.94454 | -118.41216 | 125 ft | 1 kts | 71° |
| 2026-04-25 15:47 | 33.94451 | -118.41226 | 125 ft | 1 kts | 56° |
| 2026-04-25 15:47 | 33.94445 | -118.41234 | 125 ft | 1 kts | 41° |
| 2026-04-25 15:48 | 33.94439 | -118.41240 | 125 ft | 1 kts | 22° |
| 2026-04-25 15:48 | 33.94430 | -118.41243 | 125 ft | 1 kts | 358° |
| 2026-04-25 15:48 | 33.94429 | -118.41243 | 125 ft | 0 kts | 353° |
| 2026-04-25 15:52 | 33.94431 | -118.41244 | 125 ft | 3 kts | 352° |
| 2026-04-25 15:53 | 33.94464 | -118.41249 | 125 ft | 5 kts | 352° |
| 2026-04-25 15:53 | 33.94503 | -118.41256 | 128 ft | 7 kts | 352° |
| 2026-04-25 15:53 | 33.94551 | -118.41264 | 127 ft | 7 kts | 351° |
| 2026-04-25 15:53 | 33.94599 | -118.41272 | 128 ft | 7 kts | 352° |
| 2026-04-25 15:54 | 33.94650 | -118.41279 | 127 ft | 8 kts | 354° |
| 2026-04-25 15:54 | 33.94706 | -118.41286 | 127 ft | 8 kts | 354° |
| 2026-04-25 15:54 | 33.94762 | -118.41291 | 126 ft | 8 kts | 5° |
| 2026-04-25 15:54 | 33.94795 | -118.41241 | 128 ft | 8 kts | 77° |
| 2026-04-25 15:55 | 33.94806 | -118.41172 | 125 ft | 8 kts | 81° |
| 2026-04-25 15:55 | 33.94815 | -118.41104 | 127 ft | 8 kts | 83° |
| 2026-04-25 15:55 | 33.94821 | -118.41038 | 129 ft | 7 kts | 84° |
| 2026-04-25 15:55 | 33.94827 | -118.40972 | 127 ft | 11 kts | 83° |
| 2026-04-25 15:56 | 33.94836 | -118.40880 | 130 ft | 11 kts | 84° |
| 2026-04-25 15:56 | 33.94845 | -118.40788 | 130 ft | 11 kts | 83° |
| 2026-04-25 15:56 | 33.94856 | -118.40680 | 130 ft | 19 kts | 83° |
| 2026-04-25 15:56 | 33.94874 | -118.40500 | 126 ft | 22 kts | 83° |
| 2026-04-25 15:57 | 33.94893 | -118.40318 | 129 ft | 22 kts | 83° |
| 2026-04-25 15:57 | 33.94911 | -118.40148 | 128 ft | 19 kts | 83° |
| 2026-04-25 15:57 | 33.94923 | -118.40028 | 130 ft | 8 kts | 83° |
| 2026-04-25 15:57 | 33.94932 | -118.39968 | 130 ft | 5 kts | 72° |
| 2026-04-25 15:58 | 33.94941 | -118.39949 | 126 ft | 1 kts | 56° |
| 2026-04-25 15:58 | 33.94942 | -118.39946 | 126 ft | 0 kts | 54° |
| 2026-04-25 15:58 | 33.94976 | -118.39921 | 126 ft | 9 kts | 15° |
| 2026-04-25 15:58 | 33.95027 | -118.39932 | 127 ft | 7 kts | 326° |
| 2026-04-25 15:59 | 33.95038 | -118.39977 | 125 ft | 0 kts | 266° |
| 2026-04-25 15:59 | 33.95030 | -118.40073 | 130 ft | 42 kts | 262° |
| 2026-04-25 15:59 | 33.94958 | -118.40763 | 127 ft | 123 kts | 263° |
| 2026-04-25 15:59 | 33.94817 | -118.42093 | 134 ft | 195 kts | 262° |
| 2026-04-25 16:00 | 33.94708 | -118.43208 | 548 ft | 200 kts | 262° |
| 2026-04-25 16:00 | 33.94598 | -118.44316 | 1374 ft | 200 kts | 262° |
| 2026-04-25 16:00 | 33.94339 | -118.46985 | 2557 ft | 182 kts | 264° |
| 2026-04-25 16:00 | 33.94282 | -118.48506 | 2836 ft | 182 kts | 266° |
| 2026-04-25 16:01 | 33.94239 | -118.50063 | 2970 ft | 193 kts | 266° |
| 2026-04-25 16:01 | 33.94183 | -118.51755 | 2948 ft | 206 kts | 263° |
| 2026-04-25 16:01 | 33.94065 | -118.53475 | 3173 ft | 211 kts | 262° |
| 2026-04-25 16:01 | 33.93905 | -118.55290 | 3280 ft | 225 kts | 262° |
| 2026-04-25 16:02 | 33.93741 | -118.57208 | 3510 ft | 235 kts | 262° |
| 2026-04-25 16:02 | 33.93576 | -118.59220 | 3799 ft | 247 kts | 262° |
| 2026-04-25 16:02 | 33.93410 | -118.61305 | 4227 ft | 253 kts | 263° |
| 2026-04-25 16:02 | 33.93242 | -118.63422 | 4763 ft | 256 kts | 263° |
| 2026-04-25 16:03 | 33.93071 | -118.65596 | 5115 ft | 267 kts | 264° |
| 2026-04-25 16:03 | 33.92897 | -118.67849 | 5591 ft | 272 kts | 264° |
| 2026-04-25 16:03 | 33.92720 | -118.70128 | 6198 ft | 274 kts | 264° |
| 2026-04-25 16:03 | 33.92543 | -118.72406 | 6845 ft | 274 kts | 265° |
| 2026-04-25 16:04 | 33.92366 | -118.74690 | 7500 ft | 274 kts | 264° |
| 2026-04-25 16:04 | 33.92188 | -118.76978 | 8105 ft | 275 kts | 264° |
| 2026-04-25 16:04 | 33.92008 | -118.79279 | 8727 ft | 276 kts | 264° |
| 2026-04-25 16:04 | 33.91827 | -118.81581 | 9354 ft | 277 kts | 264° |
| 2026-04-25 16:05 | 33.91667 | -118.83864 | 9957 ft | 278 kts | 268° |
| 2026-04-25 16:05 | 33.91693 | -118.86211 | 10367 ft | 287 kts | 271° |
| 2026-04-25 16:05 | 33.91912 | -118.91316 | 10637 ft | 323 kts | 271° |
| 2026-04-25 16:06 | 33.92011 | -118.94092 | 10830 ft | 340 kts | 270° |
| 2026-04-25 16:06 | 33.92101 | -118.96979 | 11240 ft | 350 kts | 270° |
| 2026-04-25 16:06 | 33.92205 | -118.99929 | 11745 ft | 353 kts | 273° |
| 2026-04-25 16:06 | 33.92779 | -119.02739 | 12246 ft | 365 kts | 291° |
| 2026-04-25 16:07 | 33.94070 | -119.05392 | 12816 ft | 370 kts | 298° |
| 2026-04-25 16:07 | 33.94543 | -119.06273 | 13019 ft | 372 kts | 298° |
| 2026-04-25 16:07 | 33.96879 | -119.10670 | 14047 ft | 377 kts | 297° |
| 2026-04-25 16:07 | 33.98274 | -119.13351 | 14638 ft | 379 kts | 297° |
| 2026-04-25 16:08 | 33.99673 | -119.16062 | 15224 ft | 382 kts | 296° |
| 2026-04-25 16:08 | 34.01172 | -119.18698 | 15711 ft | 390 kts | 306° |
| 2026-04-25 16:08 | 34.03280 | -119.20826 | 16112 ft | 401 kts | 320° |
| 2026-04-25 16:08 | 34.05593 | -119.22713 | 16544 ft | 407 kts | 320° |
| 2026-04-25 16:09 | 34.07943 | -119.24668 | 17113 ft | 410 kts | 319° |
| 2026-04-25 16:09 | 34.10278 | -119.26636 | 17723 ft | 411 kts | 319° |
| 2026-04-25 16:09 | 34.12625 | -119.28636 | 18319 ft | 413 kts | 318° |
| 2026-04-25 16:09 | 34.14971 | -119.30649 | 18763 ft | 416 kts | 318° |
| 2026-04-25 16:10 | 34.17334 | -119.32684 | 19236 ft | 420 kts | 318° |
| 2026-04-25 16:10 | 34.19723 | -119.34744 | 19699 ft | 423 kts | 319° |
| 2026-04-25 16:10 | 34.22129 | -119.36821 | 20163 ft | 426 kts | 319° |
| 2026-04-25 16:10 | 34.24541 | -119.38905 | 20609 ft | 429 kts | 319° |
| 2026-04-25 16:11 | 34.26972 | -119.41006 | 21049 ft | 432 kts | 319° |
| 2026-04-25 16:11 | 34.29430 | -119.43131 | 21499 ft | 435 kts | 319° |
| 2026-04-25 16:11 | 34.31894 | -119.45262 | 21936 ft | 438 kts | 319° |
| 2026-04-25 16:11 | 34.34384 | -119.47419 | 22363 ft | 441 kts | 319° |
| 2026-04-25 16:12 | 34.36881 | -119.49581 | 22772 ft | 444 kts | 319° |
| 2026-04-25 16:12 | 34.39403 | -119.51769 | 23200 ft | 447 kts | 319° |
| 2026-04-25 16:12 | 34.41863 | -119.54057 | 23580 ft | 445 kts | 311° |
| 2026-04-25 16:12 | 34.42608 | -119.54938 | 23662 ft | 444 kts | 308° |
| 2026-04-25 16:13 | 34.45954 | -119.59658 | 24247 ft | 445 kts | 304° |
| 2026-04-25 16:13 | 34.47910 | -119.62575 | 24657 ft | 445 kts | 304° |
| 2026-04-25 16:13 | 34.49867 | -119.65486 | 25051 ft | 447 kts | 304° |
| 2026-04-25 16:13 | 34.51858 | -119.68408 | 25412 ft | 449 kts | 305° |
| 2026-04-25 16:14 | 34.53863 | -119.71316 | 25772 ft | 452 kts | 305° |
| 2026-04-25 16:14 | 34.55899 | -119.74240 | 26109 ft | 454 kts | 305° |
| 2026-04-25 16:14 | 34.57943 | -119.77160 | 26442 ft | 456 kts | 306° |
| 2026-04-25 16:14 | 34.59999 | -119.80089 | 26782 ft | 458 kts | 306° |
| 2026-04-25 16:15 | 34.61374 | -119.82048 | 26993 ft | 459 kts | 306° |
| 2026-04-25 16:15 | 34.64142 | -119.85991 | 27512 ft | 459 kts | 305° |
| 2026-04-25 16:15 | 34.65520 | -119.87956 | 27760 ft | 460 kts | 305° |
| 2026-04-25 16:15 | 34.67591 | -119.90915 | 28076 ft | 462 kts | 305° |
| 2026-04-25 16:16 | 34.69679 | -119.93902 | 28352 ft | 464 kts | 305° |
| 2026-04-25 16:16 | 34.71767 | -119.96892 | 28651 ft | 466 kts | 305° |
| 2026-04-25 16:16 | 34.73872 | -119.99911 | 28850 ft | 469 kts | 305° |
| 2026-04-25 16:16 | 34.75859 | -120.02762 | 29017 ft | 473 kts | 305° |
| 2026-04-25 16:17 | 34.77992 | -120.05825 | 29267 ft | 474 kts | 305° |
| 2026-04-25 16:17 | 34.80119 | -120.08880 | 29547 ft | 474 kts | 305° |
| 2026-04-25 16:17 | 34.82258 | -120.11954 | 29817 ft | 475 kts | 305° |
| 2026-04-25 16:17 | 34.84392 | -120.15025 | 29953 ft | 478 kts | 304° |
| 2026-04-25 16:18 | 34.86535 | -120.18113 | 30007 ft | 479 kts | 304° |
| 2026-04-25 16:18 | 34.90820 | -120.24290 | 30016 ft | 476 kts | 304° |
| 2026-04-25 16:19 | 34.95089 | -120.30457 | 30022 ft | 475 kts | 304° |
| 2026-04-25 16:19 | 34.99320 | -120.36585 | 30020 ft | 475 kts | 304° |
| 2026-04-25 16:20 | 35.05725 | -120.45879 | 30028 ft | 477 kts | 304° |
| 2026-04-25 16:21 | 35.12138 | -120.55211 | 29999 ft | 480 kts | 304° |
| 2026-04-25 16:21 | 35.16422 | -120.61457 | 30006 ft | 479 kts | 304° |
| 2026-04-25 16:22 | 35.20703 | -120.67708 | 30025 ft | 478 kts | 304° |
| 2026-04-25 16:22 | 35.24967 | -120.73947 | 30020 ft | 478 kts | 304° |
| 2026-04-25 16:23 | 35.29201 | -120.80156 | 30006 ft | 478 kts | 304° |
| 2026-04-25 16:23 | 35.33452 | -120.86399 | 30003 ft | 477 kts | 304° |
| 2026-04-25 16:24 | 35.37701 | -120.92651 | 30008 ft | 477 kts | 304° |
| 2026-04-25 16:24 | 35.41948 | -120.98912 | 29998 ft | 478 kts | 304° |
| 2026-04-25 16:25 | 35.46070 | -121.05000 | 30006 ft | 479 kts | 304° |
| 2026-04-25 16:25 | 35.50339 | -121.11276 | 30010 ft | 479 kts | 304° |
| 2026-04-25 16:26 | 35.54684 | -121.17511 | 30001 ft | 481 kts | 305° |
| 2026-04-25 16:26 | 35.59034 | -121.23741 | 29999 ft | 482 kts | 305° |
| 2026-04-25 16:27 | 35.63387 | -121.30007 | 30003 ft | 482 kts | 304° |
| 2026-04-25 16:27 | 35.67734 | -121.36291 | 30006 ft | 483 kts | 305° |
| 2026-04-25 16:28 | 35.72085 | -121.42594 | 29994 ft | 484 kts | 305° |
| 2026-04-25 16:28 | 35.76443 | -121.48915 | 29996 ft | 484 kts | 305° |
| 2026-04-25 16:29 | 35.80801 | -121.55248 | 30002 ft | 484 kts | 304° |
| 2026-04-25 16:29 | 35.85157 | -121.61593 | 29993 ft | 485 kts | 304° |
| 2026-04-25 16:30 | 35.89509 | -121.67943 | 29991 ft | 485 kts | 304° |
| 2026-04-25 16:30 | 35.93828 | -121.74255 | 29993 ft | 484 kts | 304° |
| 2026-04-25 16:31 | 35.98288 | -121.80508 | 30002 ft | 489 kts | 313° |
| 2026-04-25 16:31 | 36.03725 | -121.85675 | 30000 ft | 501 kts | 324° |
| 2026-04-25 16:32 | 36.09959 | -121.89699 | 30005 ft | 508 kts | 330° |
| 2026-04-25 16:32 | 36.16317 | -121.93563 | 30003 ft | 512 kts | 330° |
| 2026-04-25 16:33 | 36.22698 | -121.97495 | 29996 ft | 512 kts | 329° |
| 2026-04-25 16:33 | 36.28858 | -122.01351 | 29992 ft | 511 kts | 329° |
| 2026-04-25 16:34 | 36.35185 | -122.05336 | 30004 ft | 509 kts | 329° |
| 2026-04-25 16:34 | 36.41477 | -122.09306 | 30000 ft | 506 kts | 329° |
| 2026-04-25 16:35 | 36.47744 | -122.13263 | 30000 ft | 504 kts | 329° |
| 2026-04-25 16:35 | 36.54031 | -122.17240 | 30013 ft | 511 kts | 329° |
| 2026-04-25 16:36 | 36.60404 | -122.21282 | 30005 ft | 518 kts | 329° |
| 2026-04-25 16:36 | 36.66825 | -122.25356 | 30008 ft | 518 kts | 329° |
| 2026-04-25 16:37 | 36.73251 | -122.29440 | 29995 ft | 518 kts | 329° |
| 2026-04-25 16:37 | 36.79622 | -122.33499 | 29995 ft | 517 kts | 329° |
| 2026-04-25 16:38 | 36.86022 | -122.37585 | 29994 ft | 516 kts | 328° |
| 2026-04-25 16:38 | 36.92408 | -122.41669 | 29981 ft | 515 kts | 328° |
| 2026-04-25 16:39 | 36.98772 | -122.45747 | 29983 ft | 514 kts | 328° |
| 2026-04-25 16:39 | 37.05108 | -122.49815 | 29980 ft | 512 kts | 328° |
| 2026-04-25 16:40 | 37.11437 | -122.53886 | 29971 ft | 510 kts | 328° |
| 2026-04-25 16:40 | 37.17723 | -122.57938 | 29971 ft | 508 kts | 328° |
| 2026-04-25 16:41 | 37.23994 | -122.61989 | 29970 ft | 506 kts | 329° |
| 2026-04-25 16:41 | 37.33492 | -122.67810 | 29967 ft | 509 kts | 334° |
| 2026-04-25 16:42 | 37.40085 | -122.71064 | 29959 ft | 510 kts | 336° |
| 2026-04-25 16:42 | 37.46697 | -122.74293 | 29964 ft | 509 kts | 336° |
| 2026-04-25 16:43 | 37.53288 | -122.77565 | 29973 ft | 509 kts | 335° |
| 2026-04-25 16:43 | 37.59818 | -122.80840 | 29957 ft | 508 kts | 335° |
| 2026-04-25 16:44 | 37.66377 | -122.84140 | 29962 ft | 507 kts | 335° |
| 2026-04-25 16:44 | 37.72926 | -122.87438 | 29964 ft | 506 kts | 335° |
| 2026-04-25 16:45 | 37.79465 | -122.90736 | 29958 ft | 506 kts | 335° |
| 2026-04-25 16:45 | 37.85996 | -122.94035 | 29956 ft | 505 kts | 335° |
| 2026-04-25 16:46 | 37.92525 | -122.97340 | 29961 ft | 505 kts | 335° |
| 2026-04-25 16:46 | 37.96883 | -122.99550 | 29954 ft | 505 kts | 335° |
| 2026-04-25 16:47 | 38.05365 | -123.03859 | 29959 ft | 505 kts | 335° |
| 2026-04-25 16:47 | 38.11899 | -123.07186 | 29953 ft | 506 kts | 335° |
| 2026-04-25 16:48 | 38.18440 | -123.10522 | 29951 ft | 507 kts | 335° |
| 2026-04-25 16:48 | 38.24820 | -123.14242 | 29933 ft | 504 kts | 326° |
| 2026-04-25 16:49 | 38.30744 | -123.18979 | 29950 ft | 503 kts | 324° |
| 2026-04-25 16:49 | 38.36652 | -123.23794 | 29945 ft | 505 kts | 324° |
| 2026-04-25 16:50 | 38.42591 | -123.28582 | 29946 ft | 505 kts | 324° |
| 2026-04-25 16:50 | 38.48543 | -123.33354 | 29936 ft | 505 kts | 324° |
| 2026-04-25 16:51 | 38.54489 | -123.38124 | 29938 ft | 504 kts | 324° |
| 2026-04-25 16:51 | 38.58455 | -123.41311 | 29939 ft | 502 kts | 324° |
| 2026-04-25 16:52 | 38.66291 | -123.47628 | 29924 ft | 499 kts | 324° |
| 2026-04-25 16:52 | 38.72149 | -123.52363 | 29943 ft | 496 kts | 324° |